Terminal Aerodrome Forecast
Issued by NWS

Home | Current Version | Previous Version | Graphics & Text | Print | Product List | Glossary On
Versions: 1 2 3 4 5 6 7 8 9 10 11 12 13 14 15 16 17 18
000
FTUS43 KICT 232042 AAA
TAFSLN
TAF AMD
KSLN 232042Z 2321/2418 33016G22KT 5SM -RASN SCT009 OVC015
      TEMPO 2321/2401 2SM -SN OVC009
     FM240300 34020G28KT P6SM OVC015=

USA.gov is the U.S. government's official web portal to all federal, state and local government web resources and services.